sensor_id;sensor_type;location;lat;lon;timestamp;pressure;altitude;pressure_sealevel;temperature;humidity
13314;BME280;6725;48.112;11.604;2023-09-30T00:02:25;96049.91;;;17.71;100.00
13314;BME280;6725;48.112;11.604;2023-09-30T00:04:51;96053.88;;;17.70;100.00
13314;BME280;6725;48.112;11.604;2023-09-30T00:07:16;96054.06;;;17.63;100.00
13314;BME280;6725;48.112;11.604;2023-09-30T00:09:41;96051.63;;;17.65;100.00
13314;BME280;6725;48.112;11.604;2023-09-30T00:12:07;96040.66;;;17.61;100.00
13314;BME280;6725;48.112;11.604;2023-09-30T00:14:32;96043.06;;;17.59;100.00
13314;BME280;6725;48.112;11.604;2023-09-30T00:16:57;96048.69;;;17.56;100.00
13314;BME280;6725;48.112;11.604;2023-09-30T00:19:23;96056.63;;;17.54;100.00
13314;BME280;6725;48.112;11.604;2023-09-30T00:21:49;96063.38;;;17.53;100.00
13314;BME280;6725;48.112;11.604;2023-09-30T00:24:14;96059.50;;;17.50;100.00
13314;BME280;6725;48.112;11.604;2023-09-30T00:26:39;96061.47;;;17.50;100.00
13314;BME280;6725;48.112;11.604;2023-09-30T00:29:05;96071.28;;;17.51;100.00
13314;BME280;6725;48.112;11.604;2023-09-30T00:31:31;96075.63;;;17.52;100.00
13314;BME280;6725;48.112;11.604;2023-09-30T00:33:56;96069.25;;;17.55;100.00
13314;BME280;6725;48.112;11.604;2023-09-30T00:36:22;96065.19;;;17.59;100.00
13314;BME280;6725;48.112;11.604;2023-09-30T00:38:47;96080.81;;;17.66;100.00
13314;BME280;6725;48.112;11.604;2023-09-30T00:41:12;96080.63;;;17.73;100.00
13314;BME280;6725;48.112;11.604;2023-09-30T00:43:38;96071.03;;;17.77;100.00
13314;BME280;6725;48.112;11.604;2023-09-30T00:48:47;96071.13;;;17.74;100.00
13314;BME280;6725;48.112;11.604;2023-09-30T00:51:13;96072.34;;;17.73;100.00
13314;BME280;6725;48.112;11.604;2023-09-30T00:53:39;96072.88;;;17.68;100.00
13314;BME280;6725;48.112;11.604;2023-09-30T00:56:05;96075.38;;;17.62;100.00
13314;BME280;6725;48.112;11.604;2023-09-30T00:58:31;96073.13;;;17.57;100.00
13314;BME280;6725;48.112;11.604;2023-09-30T01:00:59;96068.91;;;17.53;100.00
13314;BME280;6725;48.112;11.604;2023-09-30T01:03:25;96066.13;;;17.53;100.00
13314;BME280;6725;48.112;11.604;2023-09-30T01:05:50;96060.25;;;17.51;100.00
13314;BME280;6725;48.112;11.604;2023-09-30T01:08:16;96074.59;;;17.46;100.00
13314;BME280;6725;48.112;11.604;2023-09-30T01:10:42;96078.56;;;17.45;100.00
13314;BME280;6725;48.112;11.604;2023-09-30T01:13:08;96071.81;;;17.46;100.00
13314;BME280;6725;48.112;11.604;2023-09-30T01:15:33;96068.72;;;17.44;100.00
13314;BME280;6725;48.112;11.604;2023-09-30T01:17:59;96070.59;;;17.47;100.00
13314;BME280;6725;48.112;11.604;2023-09-30T01:20:25;96067.09;;;17.46;100.00
13314;BME280;6725;48.112;11.604;2023-09-30T01:22:50;96061.56;;;17.46;100.00
13314;BME280;6725;48.112;11.604;2023-09-30T01:25:15;96058.38;;;17.48;100.00
13314;BME280;6725;48.112;11.604;2023-09-30T01:27:41;96053.59;;;17.48;100.00
13314;BME280;6725;48.112;11.604;2023-09-30T01:30:06;96058.38;;;17.48;100.00
13314;BME280;6725;48.112;11.604;2023-09-30T01:32:36;96052.50;;;17.46;100.00
13314;BME280;6725;48.112;11.604;2023-09-30T01:35:02;96052.50;;;17.46;100.00
13314;BME280;6725;48.112;11.604;2023-09-30T01:37:27;96054.91;;;17.44;100.00
13314;BME280;6725;48.112;11.604;2023-09-30T01:39:56;96053.72;;;17.45;100.00
13314;BME280;6725;48.112;11.604;2023-09-30T01:42:21;96047.31;;;17.48;100.00
13314;BME280;6725;48.112;11.604;2023-09-30T01:44:46;96055.94;;;17.50;100.00
13314;BME280;6725;48.112;11.604;2023-09-30T01:47:12;96066.31;;;17.46;100.00
13314;BME280;6725;48.112;11.604;2023-09-30T01:49:37;96067.50;;;17.45;100.00
13314;BME280;6725;48.112;11.604;2023-09-30T01:52:03;96069.91;;;17.43;100.00
13314;BME280;6725;48.112;11.604;2023-09-30T01:54:28;96063.22;;;17.44;100.00
13314;BME280;6725;48.112;11.604;2023-09-30T01:56:54;96056.47;;;17.45;100.00
13314;BME280;6725;48.112;11.604;2023-09-30T01:59:19;96060.00;;;17.45;100.00
13314;BME280;6725;48.112;11.604;2023-09-30T02:01:44;96065.44;;;17.49;100.00
13314;BME280;6725;48.112;11.604;2023-09-30T02:04:11;96054.41;;;17.49;100.00
13314;BME280;6725;48.112;11.604;2023-09-30T02:06:41;96056.78;;;17.47;100.00
13314;BME280;6725;48.112;11.604;2023-09-30T02:09:06;96060.09;;;17.42;100.00
13314;BME280;6725;48.112;11.604;2023-09-30T02:11:34;96057.41;;;17.38;100.00
13314;BME280;6725;48.112;11.604;2023-09-30T02:13:59;96051.59;;;17.33;100.00
13314;BME280;6725;48.112;11.604;2023-09-30T02:16:25;96049.44;;;17.24;100.00
13314;BME280;6725;48.112;11.604;2023-09-30T02:18:50;96056.25;;;17.20;100.00
13314;BME280;6725;48.112;11.604;2023-09-30T02:21:17;96043.28;;;17.17;100.00
13314;BME280;6725;48.112;11.604;2023-09-30T02:23:42;96043.72;;;17.15;100.00
13314;BME280;6725;48.112;11.604;2023-09-30T02:26:12;96040.88;;;17.19;100.00
13314;BME280;6725;48.112;11.604;2023-09-30T02:28:37;96044.78;;;17.21;100.00
13314;BME280;6725;48.112;11.604;2023-09-30T02:31:03;96042.34;;;17.23;100.00
13314;BME280;6725;48.112;11.604;2023-09-30T02:33:28;96051.78;;;17.26;100.00
13314;BME280;6725;48.112;11.604;2023-09-30T02:35:53;96044.19;;;17.30;100.00
13314;BME280;6725;48.112;11.604;2023-09-30T02:38:19;96042.97;;;17.31;100.00
13314;BME280;6725;48.112;11.604;2023-09-30T02:40:47;96042.97;;;17.31;100.00
13314;BME280;6725;48.112;11.604;2023-09-30T02:43:13;96042.09;;;17.34;100.00
13314;BME280;6725;48.112;11.604;2023-09-30T02:45:39;96048.50;;;17.31;100.00
13314;BME280;6725;48.112;11.604;2023-09-30T02:48:04;96046.94;;;17.30;100.00
13314;BME280;6725;48.112;11.604;2023-09-30T02:50:30;96056.41;;;17.29;100.00
13314;BME280;6725;48.112;11.604;2023-09-30T02:52:55;96049.34;;;17.28;100.00
13314;BME280;6725;48.112;11.604;2023-09-30T02:55:20;96047.09;;;17.23;100.00
13314;BME280;6725;48.112;11.604;2023-09-30T02:57:46;96042.44;;;17.20;100.00
13314;BME280;6725;48.112;11.604;2023-09-30T03:00:12;96040.88;;;17.19;100.00
13314;BME280;6725;48.112;11.604;2023-09-30T03:02:55;96037.44;;;17.15;100.00
13314;BME280;6725;48.112;11.604;2023-09-30T03:05:22;96035.53;;;17.12;100.00
13314;BME280;6725;48.112;11.604;2023-09-30T03:07:49;96043.44;;;17.10;100.00
13314;BME280;6725;48.112;11.604;2023-09-30T03:10:18;96049.13;;;17.03;100.00
13314;BME280;6725;48.112;11.604;2023-09-30T03:12:56;96044.50;;;17.00;100.00
13314;BME280;6725;48.112;11.604;2023-09-30T03:15:22;96035.84;;;16.98;100.00
13314;BME280;6725;48.112;11.604;2023-09-30T03:17:48;96039.03;;;16.96;100.00
13314;BME280;6725;48.112;11.604;2023-09-30T03:20:14;96043.00;;;16.95;100.00
13314;BME280;6725;48.112;11.604;2023-09-30T03:22:43;96040.41;;;16.88;100.00
13314;BME280;6725;48.112;11.604;2023-09-30T03:25:10;96040.41;;;16.88;100.00
13314;BME280;6725;48.112;11.604;2023-09-30T03:27:37;96040.81;;;16.87;100.00
13314;BME280;6725;48.112;11.604;2023-09-30T03:30:04;96034.53;;;16.86;100.00
13314;BME280;6725;48.112;11.604;2023-09-30T03:32:31;96031.50;;;16.81;100.00
13314;BME280;6725;48.112;11.604;2023-09-30T03:34:58;96040.97;;;16.80;100.00
13314;BME280;6725;48.112;11.604;2023-09-30T03:37:26;96037.16;;;16.74;100.00
13314;BME280;6725;48.112;11.604;2023-09-30T03:39:54;96033.38;;;16.68;100.00
13314;BME280;6725;48.112;11.604;2023-09-30T03:42:19;96037.41;;;16.63;100.00
13314;BME280;6725;48.112;11.604;2023-09-30T03:44:44;96036.59;;;16.63;100.00
13314;BME280;6725;48.112;11.604;2023-09-30T03:47:11;96027.16;;;16.64;100.00
13314;BME280;6725;48.112;11.604;2023-09-30T03:49:36;96031.81;;;16.67;100.00
13314;BME280;6725;48.112;11.604;2023-09-30T03:52:04;96021.50;;;16.71;100.00
13314;BME280;6725;48.112;11.604;2023-09-30T03:54:29;96023.81;;;16.72;100.00
13314;BME280;6725;48.112;11.604;2023-09-30T03:56:55;96020.19;;;16.75;100.00
13314;BME280;6725;48.112;11.604;2023-09-30T03:59:20;96021.34;;;16.78;100.00
13314;BME280;6725;48.112;11.604;2023-09-30T04:01:45;96028.41;;;16.79;100.00
13314;BME280;6725;48.112;11.604;2023-09-30T04:04:12;96030.63;;;16.84;100.00
13314;BME280;6725;48.112;11.604;2023-09-30T04:06:38;96029.78;;;16.87;100.00
13314;BME280;6725;48.112;11.604;2023-09-30T04:09:07;96028.94;;;16.90;100.00
13314;BME280;6725;48.112;11.604;2023-09-30T04:11:36;96028.16;;;16.89;100.00
13314;BME280;6725;48.112;11.604;2023-09-30T04:14:03;96032.03;;;16.92;100.00
13314;BME280;6725;48.112;11.604;2023-09-30T04:16:29;96033.59;;;16.93;100.00
13314;BME280;6725;48.112;11.604;2023-09-30T04:18:55;96032.81;;;16.92;100.00
13314;BME280;6725;48.112;11.604;2023-09-30T04:21:20;96036.38;;;16.93;100.00
13314;BME280;6725;48.112;11.604;2023-09-30T04:23:46;96028.09;;;16.93;100.00
13314;BME280;6725;48.112;11.604;2023-09-30T04:26:11;96035.31;;;16.87;100.00
13314;BME280;6725;48.112;11.604;2023-09-30T04:28:37;96035.47;;;16.80;100.00
13314;BME280;6725;48.112;11.604;2023-09-30T04:31:02;96029.59;;;16.78;100.00
13314;BME280;6725;48.112;11.604;2023-09-30T04:33:28;96028.47;;;16.75;100.00
13314;BME280;6725;48.112;11.604;2023-09-30T04:35:53;96029.75;;;16.71;100.00
13314;BME280;6725;48.112;11.604;2023-09-30T04:38:19;96030.19;;;16.69;100.00
13314;BME280;6725;48.112;11.604;2023-09-30T04:40:44;96023.19;;;16.65;100.00
13314;BME280;6725;48.112;11.604;2023-09-30T04:43:13;96032.31;;;16.62;100.00
13314;BME280;6725;48.112;11.604;2023-09-30T04:45:39;96035.91;;;16.59;100.00
13314;BME280;6725;48.112;11.604;2023-09-30T04:48:05;96028.16;;;16.54;100.00
13314;BME280;6725;48.112;11.604;2023-09-30T04:50:30;96039.69;;;16.49;100.00
13314;BME280;6725;48.112;11.604;2023-09-30T04:52:56;96039.31;;;16.47;100.00
13314;BME280;6725;48.112;11.604;2023-09-30T04:55:23;96040.22;;;16.40;100.00
13314;BME280;6725;48.112;11.604;2023-09-30T04:57:49;96033.22;;;16.35;100.00
13314;BME280;6725;48.112;11.604;2023-09-30T05:00:16;96027.84;;;16.28;100.00
13314;BME280;6725;48.112;11.604;2023-09-30T05:02:43;96020.06;;;16.23;100.00
13314;BME280;6725;48.112;11.604;2023-09-30T05:05:10;96021.34;;;16.19;100.00
13314;BME280;6725;48.112;11.604;2023-09-30T05:07:35;96022.59;;;16.14;100.00
13314;BME280;6725;48.112;11.604;2023-09-30T05:10:01;96022.25;;;16.12;100.00
13314;BME280;6725;48.112;11.604;2023-09-30T05:12:30;96020.34;;;16.09;100.00
13314;BME280;6725;48.112;11.604;2023-09-30T05:14:55;96021.19;;;16.06;100.00
13314;BME280;6725;48.112;11.604;2023-09-30T05:17:21;96018.53;;;16.03;100.00
13314;BME280;6725;48.112;11.604;2023-09-30T05:19:48;96015.34;;;16.04;100.00
13314;BME280;6725;48.112;11.604;2023-09-30T05:22:13;96017.59;;;16.09;100.00
13314;BME280;6725;48.112;11.604;2023-09-30T05:24:38;96009.25;;;16.13;100.00
13314;BME280;6725;48.112;11.604;2023-09-30T05:27:04;96009.53;;;16.18;100.00
13314;BME280;6725;48.112;11.604;2023-09-30T05:29:29;96009.06;;;16.23;100.00
13314;BME280;6725;48.112;11.604;2023-09-30T05:31:55;96010.50;;;16.28;100.00
13314;BME280;6725;48.112;11.604;2023-09-30T05:34:21;96008.81;;;16.34;100.00
13314;BME280;6725;48.112;11.604;2023-09-30T05:36:46;96000.03;;;16.39;100.00
13314;BME280;6725;48.112;11.604;2023-09-30T05:39:12;96020.09;;;16.43;100.00
13314;BME280;6725;48.112;11.604;2023-09-30T05:41:38;96024.31;;;16.48;100.00
13314;BME280;6725;48.112;11.604;2023-09-30T05:44:04;96035.34;;;16.48;100.00
13314;BME280;6725;48.112;11.604;2023-09-30T05:46:32;96041.56;;;16.52;100.00
13314;BME280;6725;48.112;11.604;2023-09-30T05:48:58;96051.75;;;16.55;100.00
13314;BME280;6725;48.112;11.604;2023-09-30T05:51:23;96054.09;;;16.56;100.00
13314;BME280;6725;48.112;11.604;2023-09-30T05:53:49;96063.50;;;16.59;100.00
13314;BME280;6725;48.112;11.604;2023-09-30T05:56:15;96075.22;;;16.63;100.00
13314;BME280;6725;48.112;11.604;2023-09-30T05:58:42;96067.75;;;16.63;100.00
13314;BME280;6725;48.112;11.604;2023-09-30T06:01:10;96068.72;;;16.73;100.00
13314;BME280;6725;48.112;11.604;2023-09-30T06:03:36;96071.00;;;16.78;100.00
13314;BME280;6725;48.112;11.604;2023-09-30T06:06:10;96068.41;;;16.87;100.00
13314;BME280;6725;48.112;11.604;2023-09-30T06:08:37;96074.63;;;16.91;100.00
13314;BME280;6725;48.112;11.604;2023-09-30T06:11:02;96078.38;;;17.00;100.00
13314;BME280;6725;48.112;11.604;2023-09-30T06:13:28;96087.63;;;17.10;100.00
13314;BME280;6725;48.112;11.604;2023-09-30T06:15:58;96087.47;;;17.17;100.00
13314;BME280;6725;48.112;11.604;2023-09-30T06:18:23;96092.66;;;17.31;100.00
13314;BME280;6725;48.112;11.604;2023-09-30T06:20:49;96096.38;;;17.40;100.00
13314;BME280;6725;48.112;11.604;2023-09-30T06:23:16;96106.50;;;17.47;100.00
13314;BME280;6725;48.112;11.604;2023-09-30T06:25:41;96122.22;;;17.50;100.00
13314;BME280;6725;48.112;11.604;2023-09-30T06:28:07;96133.91;;;17.57;100.00
13314;BME280;6725;48.112;11.604;2023-09-30T06:30:33;96127.06;;;17.62;100.00
13314;BME280;6725;48.112;11.604;2023-09-30T06:33:00;96138.31;;;17.71;100.00
13314;BME280;6725;48.112;11.604;2023-09-30T06:35:29;96143.94;;;17.83;100.00
13314;BME280;6725;48.112;11.604;2023-09-30T06:38:02;96163.69;;;18.30;100.00
13314;BME280;6725;48.112;11.604;2023-09-30T06:40:28;96186.88;;;18.80;100.00
13314;BME280;6725;48.112;11.604;2023-09-30T06:42:53;96201.72;;;19.43;100.00
13314;BME280;6725;48.112;11.604;2023-09-30T06:45:19;96211.84;;;19.21;100.00
13314;BME280;6725;48.112;11.604;2023-09-30T06:47:44;96209.59;;;18.88;100.00
13314;BME280;6725;48.112;11.604;2023-09-30T06:50:11;96204.69;;;19.08;100.00
13314;BME280;6725;48.112;11.604;2023-09-30T06:52:41;96206.88;;;19.00;100.00
13314;BME280;6725;48.112;11.604;2023-09-30T06:55:08;96211.78;;;18.80;100.00
13314;BME280;6725;48.112;11.604;2023-09-30T06:57:35;96215.69;;;18.83;100.00
13314;BME280;6725;48.112;11.604;2023-09-30T07:00:01;96222.53;;;19.07;100.00
13314;BME280;6725;48.112;11.604;2023-09-30T07:02:29;96224.97;;;19.33;100.00
13314;BME280;6725;48.112;11.604;2023-09-30T07:04:54;96234.59;;;19.29;100.00
13314;BME280;6725;48.112;11.604;2023-09-30T07:07:19;96218.34;;;19.15;100.00
13314;BME280;6725;48.112;11.604;2023-09-30T07:09:45;96221.47;;;18.88;100.00
13314;BME280;6725;48.112;11.604;2023-09-30T07:12:10;96226.22;;;18.88;100.00
13314;BME280;6725;48.112;11.604;2023-09-30T07:14:35;96231.13;;;18.96;100.00
13314;BME280;6725;48.112;11.604;2023-09-30T07:17:01;96232.06;;;19.06;100.00
13314;BME280;6725;48.112;11.604;2023-09-30T07:19:26;96228.06;;;19.07;100.00
13314;BME280;6725;48.112;11.604;2023-09-30T07:21:51;96237.78;;;18.99;100.00
13314;BME280;6725;48.112;11.604;2023-09-30T07:24:17;96237.00;;;18.98;100.00
13314;BME280;6725;48.112;11.604;2023-09-30T07:26:42;96231.81;;;19.00;100.00
13314;BME280;6725;48.112;11.604;2023-09-30T07:29:09;96233.41;;;19.14;100.00
13314;BME280;6725;48.112;11.604;2023-09-30T07:31:37;96242.38;;;19.18;100.00
13314;BME280;6725;48.112;11.604;2023-09-30T07:34:03;96243.56;;;19.04;100.00
13314;BME280;6725;48.112;11.604;2023-09-30T07:36:28;96239.63;;;19.18;100.00
13314;BME280;6725;48.112;11.604;2023-09-30T07:38:53;96246.81;;;18.87;100.00
13314;BME280;6725;48.112;11.604;2023-09-30T07:41:19;96263.63;;;18.80;100.00
13314;BME280;6725;48.112;11.604;2023-09-30T07:43:44;96255.31;;;18.64;100.00
13314;BME280;6725;48.112;11.604;2023-09-30T07:46:10;96256.59;;;18.75;100.00
13314;BME280;6725;48.112;11.604;2023-09-30T07:48:35;96254.78;;;18.85;100.00
13314;BME280;6725;48.112;11.604;2023-09-30T07:51:01;96255.88;;;19.03;100.00
13314;BME280;6725;48.112;11.604;2023-09-30T07:53:27;96252.56;;;19.37;100.00
13314;BME280;6725;48.112;11.604;2023-09-30T07:55:53;96273.91;;;20.19;100.00
13314;BME280;6725;48.112;11.604;2023-09-30T07:58:19;96276.75;;;20.40;100.00
13314;BME280;6725;48.112;11.604;2023-09-30T08:00:45;96278.78;;;20.27;100.00
13314;BME280;6725;48.112;11.604;2023-09-30T08:03:10;96286.31;;;20.27;100.00
13314;BME280;6725;48.112;11.604;2023-09-30T08:05:37;96283.09;;;20.28;100.00
13314;BME280;6725;48.112;11.604;2023-09-30T08:08:02;96289.72;;;19.93;100.00
13314;BME280;6725;48.112;11.604;2023-09-30T08:10:28;96290.63;;;20.40;100.00
13314;BME280;6725;48.112;11.604;2023-09-30T08:12:54;96282.88;;;20.48;100.00
13314;BME280;6725;48.112;11.604;2023-09-30T08:15:22;96277.75;;;20.71;100.00
13314;BME280;6725;48.112;11.604;2023-09-30T08:17:47;96276.09;;;21.42;100.00
13314;BME280;6725;48.112;11.604;2023-09-30T08:20:13;96281.00;;;21.59;100.00
13314;BME280;6725;48.112;11.604;2023-09-30T08:22:39;96280.47;;;21.30;100.00
13314;BME280;6725;48.112;11.604;2023-09-30T08:25:05;96278.81;;;20.99;100.00
13314;BME280;6725;48.112;11.604;2023-09-30T08:27:31;96264.97;;;20.61;100.00
13314;BME280;6725;48.112;11.604;2023-09-30T08:29:57;96255.50;;;20.96;100.00
13314;BME280;6725;48.112;11.604;2023-09-30T08:32:22;96254.50;;;22.68;100.00
13314;BME280;6725;48.112;11.604;2023-09-30T08:34:48;96269.59;;;23.79;100.00
13314;BME280;6725;48.112;11.604;2023-09-30T08:37:14;96297.38;;;24.33;100.00
13314;BME280;6725;48.112;11.604;2023-09-30T08:39:40;96300.56;;;23.99;100.00
13314;BME280;6725;48.112;11.604;2023-09-30T08:42:09;96286.03;;;23.32;100.00
13314;BME280;6725;48.112;11.604;2023-09-30T08:44:39;96309.59;;;23.58;100.00
13314;BME280;6725;48.112;11.604;2023-09-30T08:47:05;96308.59;;;22.98;100.00
13314;BME280;6725;48.112;11.604;2023-09-30T08:49:34;96309.41;;;22.28;100.00
13314;BME280;6725;48.112;11.604;2023-09-30T08:52:00;96297.16;;;22.16;100.00
13314;BME280;6725;48.112;11.604;2023-09-30T08:54:27;96305.31;;;21.89;100.00
13314;BME280;6725;48.112;11.604;2023-09-30T08:56:52;96322.28;;;21.82;100.00
13314;BME280;6725;48.112;11.604;2023-09-30T08:59:18;96311.53;;;21.93;100.00
13314;BME280;6725;48.112;11.604;2023-09-30T09:01:44;96303.69;;;21.58;100.00
13314;BME280;6725;48.112;11.604;2023-09-30T09:04:09;96287.72;;;21.49;100.00
13314;BME280;6725;48.112;11.604;2023-09-30T09:06:35;96295.38;;;22.40;100.00
13314;BME280;6725;48.112;11.604;2023-09-30T09:09:17;96291.50;;;22.38;100.00
13314;BME280;6725;48.112;11.604;2023-09-30T09:11:44;96284.06;;;22.66;100.00
13314;BME280;6725;48.112;11.604;2023-09-30T09:14:09;96281.06;;;23.72;100.00
13314;BME280;6725;48.112;11.604;2023-09-30T09:16:35;96299.78;;;24.16;100.00
13314;BME280;6725;48.112;11.604;2023-09-30T09:19:13;96302.53;;;24.67;100.00
13314;BME280;6725;48.112;11.604;2023-09-30T09:21:53;96297.28;;;25.16;100.00
13314;BME280;6725;48.112;11.604;2023-09-30T09:24:30;96286.16;;;25.69;100.00
13314;BME280;6725;48.112;11.604;2023-09-30T09:27:11;96287.06;;;25.75;100.00
13314;BME280;6725;48.112;11.604;2023-09-30T09:29:39;96294.88;;;25.71;100.00
13314;BME280;6725;48.112;11.604;2023-09-30T09:32:11;96311.81;;;25.05;100.00
13314;BME280;6725;48.112;11.604;2023-09-30T09:34:38;96310.41;;;24.36;100.00
13314;BME280;6725;48.112;11.604;2023-09-30T09:37:20;96321.06;;;23.51;100.00
13314;BME280;6725;48.112;11.604;2023-09-30T09:39:54;96321.84;;;22.76;100.00
13314;BME280;6725;48.112;11.604;2023-09-30T09:42:39;96318.19;;;22.17;100.00
13314;BME280;6725;48.112;11.604;2023-09-30T09:45:05;96301.88;;;21.76;100.00
13314;BME280;6725;48.112;11.604;2023-09-30T09:47:34;96298.31;;;22.06;100.00
13314;BME280;6725;48.112;11.604;2023-09-30T09:49:59;96286.84;;;22.04;100.00
13314;BME280;6725;48.112;11.604;2023-09-30T09:52:28;96267.19;;;22.29;100.00
13314;BME280;6725;48.112;11.604;2023-09-30T09:54:55;96253.50;;;23.29;100.00
13314;BME280;6725;48.112;11.604;2023-09-30T09:57:20;96255.31;;;23.86;100.00
13314;BME280;6725;48.112;11.604;2023-09-30T09:59:47;96253.72;;;24.03;100.00
13314;BME280;6725;48.112;11.604;2023-09-30T10:02:16;96250.72;;;24.57;100.00
13314;BME280;6725;48.112;11.604;2023-09-30T10:04:43;96252.03;;;24.79;100.00
13314;BME280;6725;48.112;11.604;2023-09-30T10:07:12;96258.31;;;25.36;100.00
13314;BME280;6725;48.112;11.604;2023-09-30T10:09:41;96268.03;;;25.93;100.00
13314;BME280;6725;48.112;11.604;2023-09-30T10:12:09;96262.09;;;25.48;100.00
13314;BME280;6725;48.112;11.604;2023-09-30T10:14:35;96278.19;;;24.91;100.00
13314;BME280;6725;48.112;11.604;2023-09-30T10:17:02;96284.44;;;24.86;100.00
13314;BME280;6725;48.112;11.604;2023-09-30T10:19:28;96267.16;;;25.58;100.00
13314;BME280;6725;48.112;11.604;2023-09-30T10:24:48;96267.41;;;26.27;100.00
13314;BME280;6725;48.112;11.604;2023-09-30T10:37:44;96255.97;;;24.64;100.00
13314;BME280;6725;48.112;11.604;2023-09-30T10:40:21;96248.75;;;24.81;100.00
13314;BME280;6725;48.112;11.604;2023-09-30T10:42:50;96246.47;;;24.94;100.00
13314;BME280;6725;48.112;11.604;2023-09-30T10:50:55;96246.94;;;23.86;100.00
13314;BME280;6725;48.112;11.604;2023-09-30T10:53:21;96260.31;;;23.37;100.00
13314;BME280;6725;48.112;11.604;2023-09-30T10:55:54;96259.72;;;23.42;100.00
13314;BME280;6725;48.112;11.604;2023-09-30T10:58:20;96265.44;;;23.65;100.00
13314;BME280;6725;48.112;11.604;2023-09-30T11:00:55;96255.22;;;23.26;100.00
13314;BME280;6725;48.112;11.604;2023-09-30T11:03:21;96263.59;;;23.35;100.00
13314;BME280;6725;48.112;11.604;2023-09-30T11:05:50;96268.38;;;23.44;100.00
13314;BME280;6725;48.112;11.604;2023-09-30T11:08:21;96255.31;;;23.77;100.00
13314;BME280;6725;48.112;11.604;2023-09-30T11:10:50;96248.34;;;24.32;100.00
13314;BME280;6725;48.112;11.604;2023-09-30T11:13:17;96238.56;;;24.36;100.00
13314;BME280;6725;48.112;11.604;2023-09-30T11:15:44;96230.09;;;24.22;100.00
13314;BME280;6725;48.112;11.604;2023-09-30T11:18:17;96234.38;;;24.32;100.00
13314;BME280;6725;48.112;11.604;2023-09-30T11:20:43;96230.16;;;24.04;100.00
13314;BME280;6725;48.112;11.604;2023-09-30T11:23:10;96241.41;;;23.68;100.00
13314;BME280;6725;48.112;11.604;2023-09-30T11:25:36;96231.72;;;24.05;100.00
13314;BME280;6725;48.112;11.604;2023-09-30T11:28:17;96239.53;;;23.74;100.00
13314;BME280;6725;48.112;11.604;2023-09-30T11:31:00;96244.00;;;23.80;100.00
13314;BME280;6725;48.112;11.604;2023-09-30T11:33:28;96251.63;;;23.62;100.00
13314;BME280;6725;48.112;11.604;2023-09-30T11:38:24;96251.16;;;23.63;100.00
13314;BME280;6725;48.112;11.604;2023-09-30T11:41:05;96251.94;;;23.64;100.00
13314;BME280;6725;48.112;11.604;2023-09-30T11:43:35;96243.88;;;23.48;100.00
13314;BME280;6725;48.112;11.604;2023-09-30T11:46:08;96259.41;;;23.40;100.00
13314;BME280;6725;48.112;11.604;2023-09-30T11:49:03;96250.88;;;23.25;100.00
13314;BME280;6725;48.112;11.604;2023-09-30T11:51:34;96254.06;;;22.97;100.00
13314;BME280;6725;48.112;11.604;2023-09-30T11:54:08;96245.78;;;23.24;100.00
13314;BME280;6725;48.112;11.604;2023-09-30T11:56:33;96247.03;;;23.23;100.00
13314;BME280;6725;48.112;11.604;2023-09-30T11:58:59;96247.94;;;23.29;100.00
13314;BME280;6725;48.112;11.604;2023-09-30T12:01:24;96243.28;;;23.44;100.00
13314;BME280;6725;48.112;11.604;2023-09-30T12:03:50;96251.78;;;23.49;100.00
13314;BME280;6725;48.112;11.604;2023-09-30T12:06:17;96235.84;;;23.50;100.00
13314;BME280;6725;48.112;11.604;2023-09-30T12:08:42;96224.69;;;23.50;100.00
13314;BME280;6725;48.112;11.604;2023-09-30T12:11:08;96211.38;;;23.36;100.00
13314;BME280;6725;48.112;11.604;2023-09-30T12:13:33;96196.03;;;22.86;100.00
13314;BME280;6725;48.112;11.604;2023-09-30T12:15:59;96190.16;;;22.84;100.00
13314;BME280;6725;48.112;11.604;2023-09-30T12:18:24;96199.38;;;22.54;100.00
13314;BME280;6725;48.112;11.604;2023-09-30T12:20:50;96194.25;;;22.43;100.00
13314;BME280;6725;48.112;11.604;2023-09-30T12:23:19;96199.78;;;22.34;100.00
13314;BME280;6725;48.112;11.604;2023-09-30T12:25:46;96192.72;;;22.52;100.00
13314;BME280;6725;48.112;11.604;2023-09-30T12:28:11;96193.81;;;22.54;100.00
13314;BME280;6725;48.112;11.604;2023-09-30T12:30:39;96188.13;;;22.85;100.00
13314;BME280;6725;48.112;11.604;2023-09-30T12:33:05;96194.00;;;23.14;100.00
13314;BME280;6725;48.112;11.604;2023-09-30T12:35:32;96196.50;;;22.94;100.00
13314;BME280;6725;48.112;11.604;2023-09-30T12:37:58;96196.50;;;23.12;100.00
13314;BME280;6725;48.112;11.604;2023-09-30T12:40:23;96192.16;;;22.93;100.00
13314;BME280;6725;48.112;11.604;2023-09-30T12:42:49;96183.03;;;23.01;100.00
13314;BME280;6725;48.112;11.604;2023-09-30T12:45:14;96178.53;;;23.13;100.00
13314;BME280;6725;48.112;11.604;2023-09-30T12:47:39;96188.00;;;23.33;100.00
13314;BME280;6725;48.112;11.604;2023-09-30T12:50:06;96183.19;;;23.34;100.00
13314;BME280;6725;48.112;11.604;2023-09-30T12:52:34;96179.16;;;23.17;100.00
13314;BME280;6725;48.112;11.604;2023-09-30T12:54:59;96182.09;;;22.86;100.00
13314;BME280;6725;48.112;11.604;2023-09-30T12:57:25;96187.38;;;22.93;100.00
13314;BME280;6725;48.112;11.604;2023-09-30T12:59:51;96191.53;;;22.89;100.00
13314;BME280;6725;48.112;11.604;2023-09-30T13:02:16;96188.16;;;22.94;100.00
13314;BME280;6725;48.112;11.604;2023-09-30T13:04:44;96197.88;;;22.89;100.00
13314;BME280;6725;48.112;11.604;2023-09-30T13:07:09;96192.44;;;22.86;100.00
13314;BME280;6725;48.112;11.604;2023-09-30T13:09:41;96201.13;;;23.15;100.00
13314;BME280;6725;48.112;11.604;2023-09-30T13:12:07;96202.41;;;23.32;100.00
13314;BME280;6725;48.112;11.604;2023-09-30T13:14:33;96198.03;;;23.40;100.00